createdAt,value
2022-09-11T00:01:57.881Z,14.3
2022-09-11T00:13:57.890Z,14.1
2022-09-11T00:25:58.334Z,14.1
2022-09-11T00:37:57.876Z,14.1
2022-09-11T00:49:57.952Z,14.1
2022-09-11T01:01:57.931Z,14.3
2022-09-11T01:13:57.863Z,14.4
2022-09-11T01:25:57.867Z,14.5
2022-09-11T01:37:57.888Z,14.5
2022-09-11T01:49:57.889Z,14.5
2022-09-11T02:01:57.884Z,14.4
2022-09-11T02:13:57.920Z,14.4
2022-09-11T02:25:57.876Z,14.4
2022-09-11T02:37:57.871Z,14.3
2022-09-11T02:49:57.893Z,14.2
2022-09-11T03:01:57.899Z,14.2
2022-09-11T03:13:57.860Z,14.1
2022-09-11T03:25:57.837Z,14.0
2022-09-11T03:37:57.981Z,14.0
2022-09-11T03:49:58.407Z,14.1
2022-09-11T04:01:57.901Z,14.2
2022-09-11T04:13:57.880Z,14.2
2022-09-11T04:25:57.881Z,14.2
2022-09-11T04:37:57.849Z,14.3
2022-09-11T04:49:57.862Z,14.3
2022-09-11T05:01:57.978Z,14.3
2022-09-11T05:13:57.870Z,14.3
2022-09-11T05:25:57.856Z,14.4
2022-09-11T05:37:57.862Z,14.4
2022-09-11T05:49:57.871Z,14.5
2022-09-11T06:01:57.915Z,14.6
2022-09-11T06:13:57.879Z,14.6
2022-09-11T06:25:57.886Z,14.6
2022-09-11T06:37:57.879Z,14.7
2022-09-11T06:49:57.874Z,14.7
2022-09-11T07:01:58.099Z,14.9
2022-09-11T07:13:57.883Z,15.0
2022-09-11T07:25:57.871Z,15.0
2022-09-11T07:37:57.852Z,15.3
2022-09-11T07:49:57.899Z,15.5
2022-09-11T08:01:57.915Z,16.1
2022-09-11T08:13:57.870Z,16.2
2022-09-11T08:25:57.873Z,15.8
2022-09-11T08:37:57.877Z,15.7
2022-09-11T08:49:57.897Z,15.7
2022-09-11T09:01:57.943Z,16.4
2022-09-11T09:13:57.841Z,16.0
2022-09-11T09:25:57.838Z,16.6
2022-09-11T09:37:57.881Z,16.9
2022-09-11T09:49:58.707Z,17.0
2022-09-11T10:01:57.958Z,17.8
2022-09-11T10:13:58.009Z,17.6
2022-09-11T10:25:57.877Z,17.0
2022-09-11T10:37:57.883Z,16.8
2022-09-11T10:49:57.890Z,17.0
2022-09-11T11:01:57.935Z,18.1
2022-09-11T11:13:57.879Z,17.9
2022-09-11T11:25:58.570Z,18.0
2022-09-11T11:37:58.750Z,18.3
2022-09-11T11:49:58.426Z,18.6
2022-09-11T12:01:58.414Z,19.1
2022-09-11T12:13:58.503Z,18.9
2022-09-11T12:25:58.497Z,18.5
2022-09-11T12:37:57.905Z,19.2
2022-09-11T12:49:58.637Z,19.2
2022-09-11T13:01:58.751Z,19.5
2022-09-11T13:13:57.931Z,19.6
2022-09-11T13:25:57.945Z,19.6
2022-09-11T13:37:58.156Z,19.2
2022-09-11T13:49:57.894Z,19.1
2022-09-11T14:01:58.494Z,19.9
2022-09-11T14:13:57.940Z,19.8
2022-09-11T14:25:59.026Z,20.1
2022-09-11T14:37:58.545Z,19.8
2022-09-11T14:49:57.939Z,19.6
2022-09-11T15:01:57.883Z,20.1
2022-09-11T15:14:15.992Z,19.9
2022-09-11T15:25:57.899Z,19.8
2022-09-11T15:37:58.493Z,19.8
2022-09-11T15:49:57.935Z,19.7
2022-09-11T16:01:58.956Z,19.6
2022-09-11T16:13:57.863Z,19.5
2022-09-11T16:25:57.877Z,19.4
2022-09-11T16:37:58.490Z,19.4
2022-09-11T16:50:08.151Z,19.1
2022-09-11T17:01:57.903Z,18.8
2022-09-11T17:13:57.866Z,18.6
2022-09-11T17:25:57.877Z,18.2
2022-09-11T17:37:58.108Z,17.9
2022-09-11T17:49:57.894Z,17.7
2022-09-11T18:01:57.981Z,17.0
2022-09-11T18:13:57.869Z,16.6
2022-09-11T18:25:59.777Z,16.4
2022-09-11T18:37:59.979Z,16.2
2022-09-11T18:49:57.880Z,16.1
2022-09-11T19:01:58.143Z,15.5
2022-09-11T19:13:57.874Z,15.3
2022-09-11T19:25:57.867Z,15.4
2022-09-11T19:38:00.280Z,15.3
2022-09-11T19:49:57.928Z,15.0
2022-09-11T20:01:57.905Z,15.0
2022-09-11T20:13:57.874Z,15.2
2022-09-11T20:25:57.891Z,14.5
2022-09-11T20:37:58.256Z,14.0
2022-09-11T20:49:57.856Z,13.6
2022-09-11T21:01:57.934Z,13.2
2022-09-11T21:13:57.949Z,13.1
2022-09-11T21:25:57.882Z,13.0
2022-09-11T21:37:57.897Z,12.9
2022-09-11T21:49:58.138Z,12.7
2022-09-11T22:01:57.914Z,12.5
2022-09-11T22:13:57.881Z,12.3
2022-09-11T22:25:57.882Z,12.2
2022-09-11T22:37:57.873Z,12.2
2022-09-11T22:49:57.901Z,12.1
2022-09-11T23:01:57.894Z,12.1
2022-09-11T23:13:57.907Z,11.8
2022-09-11T23:25:57.852Z,11.8
2022-09-11T23:37:57.874Z,11.7
2022-09-11T23:49:57.899Z,11.7
